Time;durP1;ratioP1;P1;durP2;ratioP2;P2;SDS_P1;SDS_P2;PMS_P1;PMS_P2;Temp;Humidity;BMP_temperature;BMP_pressure;BME280_temperature;BME280_humidity;BME280_pressure;Samples;Min_cycle;Max_cycle;Signal;HPM_P1;HPM_P2
2022/01/23 00:03:51;;;;;;;6.95;4.78;;;;;;;2.89;100.00;99842.91;10407615;28;20455;-56
2022/01/23 00:09:00;;;;;;;5.97;5.32;;;;;;;2.86;100.00;99843.06;10416560;28;20076;-54
2022/01/23 00:19:27;;;;;;;6.70;5.80;;;;;;;2.84;100.00;99828.97;10410416;28;20045;-55
2022/01/23 00:35:15;;;;;;;8.05;6.13;;;;;;;2.80;100.00;99848.69;10398910;28;20165;-53
2022/01/23 00:40:22;;;;;;;9.07;5.75;;;;;;;2.80;100.00;99848.69;10408478;28;20049;-52
2022/01/23 00:45:30;;;;;;;6.75;6.10;;;;;;;2.80;100.00;99843.38;10411002;28;20069;-54
2022/01/23 00:50:36;;;;;;;8.75;6.03;;;;;;;2.78;100.00;99836.31;10392640;28;20461;-53
2022/01/23 00:55:46;;;;;;;7.60;6.53;;;;;;;2.79;100.00;99839.84;10411301;28;20092;-53
2022/01/23 01:00:52;;;;;;;6.30;5.63;;;;;;;3.02;100.00;99854.66;10408714;28;20399;-52
2022/01/23 01:05:56;;;;;;;5.25;4.03;;;;;;;3.08;100.00;99867.66;10408057;28;20071;-49
2022/01/23 01:11:45;;;;;;;3.55;3.25;;;;;;;3.25;100.00;99865.94;10390175;28;20144;-50
2022/01/23 01:16:59;;;;;;;4.07;3.15;;;;;;;3.38;100.00;99866.19;10420982;28;20037;-53
2022/01/23 01:33:29;;;;;;;3.08;2.75;;;;;;;3.51;100.00;99853.94;10418797;28;20474;-50
2022/01/23 01:38:34;;;;;;;3.25;2.95;;;;;;;3.54;100.00;99856.41;10416697;28;20596;-51
2022/01/23 01:43:42;;;;;;;3.30;3.00;;;;;;;3.59;100.00;99850.84;10407609;28;20387;-50
2022/01/23 01:48:47;;;;;;;2.85;2.60;;;;;;;3.71;100.00;99873.34;10403324;28;20052;-50
2022/01/23 01:53:58;;;;;;;3.33;2.88;;;;;;;3.68;100.00;99878.81;10407686;28;20048;-50
2022/01/23 02:10:11;;;;;;;3.20;2.88;;;;;;;3.57;100.00;99876.75;10405057;28;20045;-55
2022/01/23 02:53:34;;;;;;;4.80;2.20;;;;;;;3.16;100.00;99829.13;10410571;28;20045;-49
2022/01/23 02:58:56;;;;;;;1.90;1.80;;;;;;;3.18;100.00;99835.25;10411112;28;20041;-51
2022/01/23 03:04:08;;;;;;;3.60;2.10;;;;;;;3.21;100.00;99840.41;10411136;28;20041;-58
2022/01/23 03:10:18;;;;;;;2.38;2.15;;;;;;;3.14;100.00;99842.53;10411732;28;20054;-49
2022/01/23 03:15:28;;;;;;;2.28;2.10;;;;;;;3.14;100.00;99847.84;10413105;28;20045;-49
2022/01/23 03:31:22;;;;;;;3.10;2.80;;;;;;;2.95;100.00;99841.72;10430238;28;20587;-49
2022/01/23 03:36:26;;;;;;;4.38;2.80;;;;;;;2.95;100.00;99837.28;10430764;28;20041;-49
2022/01/23 03:41:32;;;;;;;3.72;3.20;;;;;;;2.98;100.00;99847.78;10416081;28;20122;-49
2022/01/23 03:46:50;;;;;;;4.50;3.10;;;;;;;3.02;100.00;99840.50;10413329;28;20037;-49
2022/01/23 03:52:00;;;;;;;4.93;3.33;;;;;;;3.07;100.00;99841.09;10426235;28;20049;-49
2022/01/23 03:57:07;;;;;;;5.82;3.60;;;;;;;3.02;100.00;99846.66;10411560;28;20055;-49
2022/01/23 04:02:14;;;;;;;3.88;3.15;;;;;;;3.26;100.00;99859.66;10410799;28;20072;-51
2022/01/23 04:07:23;;;;;;;4.68;3.42;;;;;;;3.20;100.00;99847.53;10411115;28;20095;-49
2022/01/23 04:12:40;;;;;;;5.35;3.33;;;;;;;3.34;100.00;99853.94;10395008;28;20050;-49
2022/01/23 04:34:15;;;;;;;4.40;3.80;;;;;;;3.32;100.00;99877.13;10417833;28;20045;-55
2022/01/23 05:00:53;;;;;;;5.00;4.45;;;;;;;3.23;100.00;99900.66;10407589;28;20067;-49
2022/01/23 05:06:06;;;;;;;5.55;4.95;;;;;;;3.12;100.00;99903.00;10410937;28;20045;-54
2022/01/23 05:11:26;;;;;;;7.93;5.60;;;;;;;2.91;100.00;99899.59;10406431;28;20162;-51
2022/01/23 05:16:41;;;;;;;7.43;6.65;;;;;;;2.85;100.00;99905.22;10408737;28;20033;-52
2022/01/23 05:22:04;;;;;;;9.07;7.15;;;;;;;2.77;100.00;99900.28;10410200;28;20563;-51
2022/01/23 05:27:10;;;;;;;9.48;7.63;;;;;;;2.69;100.00;99911.28;10419598;28;20053;-51
2022/01/23 05:32:20;;;;;;;9.13;7.55;;;;;;;2.65;100.00;99923.00;10440594;28;20053;-51
2022/01/23 05:37:27;;;;;;;11.80;8.23;;;;;;;2.60;100.00;99925.06;10411385;28;20452;-53
2022/01/23 05:42:33;;;;;;;9.98;7.90;;;;;;;2.57;100.00;99935.81;10406333;28;20076;-51
2022/01/23 05:47:39;;;;;;;10.30;8.38;;;;;;;2.51;100.00;99934.31;10394875;28;20426;-52
2022/01/23 05:53:00;;;;;;;12.63;8.73;;;;;;;2.50;100.00;99948.56;10406346;28;20046;-56
2022/01/23 05:58:18;;;;;;;10.35;8.50;;;;;;;2.48;100.00;99945.09;10406417;28;20067;-55
2022/01/23 06:03:25;;;;;;;10.00;8.70;;;;;;;2.45;100.00;99946.13;10406542;28;20050;-56
2022/01/23 06:08:45;;;;;;;12.13;8.10;;;;;;;2.49;100.00;99962.78;10406054;28;20042;-55
2022/01/23 06:13:50;;;;;;;10.43;8.85;;;;;;;2.46;100.00;99963.81;10424907;28;20096;-52
2022/01/23 06:18:56;;;;;;;8.98;7.30;;;;;;;2.49;100.00;99965.44;10415574;28;20048;-59
2022/01/23 06:24:25;;;;;;;7.88;6.63;;;;;;;2.53;100.00;99979.50;10418562;28;20100;-56
2022/01/23 06:29:55;;;;;;;9.20;7.20;;;;;;;2.54;100.00;99990.06;10414020;28;20543;-56
2022/01/23 06:35:02;;;;;;;8.63;6.93;;;;;;;2.52;100.00;99993.75;10418355;28;20049;-58
2022/01/23 06:40:07;;;;;;;8.93;6.32;;;;;;;2.52;100.00;100001.72;10412801;28;20045;-57
2022/01/23 06:45:31;;;;;;;6.78;5.60;;;;;;;2.53;100.00;100006.09;10395946;28;20049;-57
2022/01/23 06:50:36;;;;;;;6.18;5.57;;;;;;;2.51;100.00;100006.16;10413021;28;20061;-58
2022/01/23 06:55:43;;;;;;;6.03;5.43;;;;;;;2.49;100.00;100008.03;10414321;28;20046;-57
2022/01/23 07:00:47;;;;;;;8.35;6.50;;;;;;;2.47;100.00;100009.88;10413540;28;20069;-58
2022/01/23 07:05:55;;;;;;;8.27;6.25;;;;;;;2.45;100.00;100015.28;10415755;28;20056;-57
2022/01/23 07:11:15;;;;;;;9.38;7.40;;;;;;;2.42;100.00;100010.09;10429328;28;20045;-56
2022/01/23 07:16:47;;;;;;;10.00;7.88;;;;;;;2.39;100.00;100012.91;10411266;28;20046;-56
2022/01/23 07:22:10;;;;;;;11.30;8.57;;;;;;;2.34;100.00;100017.56;10407276;28;20033;-57
2022/01/23 07:27:19;;;;;;;11.48;8.60;;;;;;;2.34;100.00;100017.56;10441505;28;20049;-58
2022/01/23 07:32:23;;;;;;;11.88;8.70;;;;;;;2.33;100.00;100022.97;10415117;28;20053;-56
2022/01/23 07:37:28;;;;;;;14.13;9.23;;;;;;;2.34;100.00;100038.00;10414613;28;20052;-55
2022/01/23 07:42:56;;;;;;;11.88;8.27;;;;;;;2.33;100.00;100038.94;10401098;28;20053;-58
2022/01/23 07:48:18;;;;;;;10.85;7.68;;;;;;;2.37;100.00;100043.16;10409457;28;20046;-56
2022/01/23 07:53:43;;;;;;;11.23;7.90;;;;;;;2.39;100.00;100042.19;10410012;28;20049;-57
2022/01/23 07:59:05;;;;;;;12.95;8.18;;;;;;;2.38;100.00;100042.22;10430912;28;20128;-55
2022/01/23 08:04:29;;;;;;;10.00;7.50;;;;;;;2.39;100.00;100052.81;10397533;28;20060;-55
2022/01/23 08:09:35;;;;;;;11.93;8.38;;;;;;;2.37;100.00;100054.69;10408963;28;20094;-59
2022/01/23 08:14:44;;;;;;;15.52;9.40;;;;;;;2.37;100.00;100057.34;10416299;28;20194;-58
2022/01/23 08:19:48;;;;;;;15.05;9.05;;;;;;;2.41;100.00;100066.03;10423150;28;20050;-56
2022/01/23 08:24:54;;;;;;;14.50;9.50;;;;;;;2.43;100.00;100075.66;10414437;28;20053;-55
2022/01/23 08:29:58;;;;;;;14.00;9.75;;;;;;;2.45;100.00;100073.81;10420760;28;20124;-59
2022/01/23 08:35:01;;;;;;;15.30;9.85;;;;;;;2.52;100.00;100062.91;10413609;28;20034;-57
2022/01/23 08:40:16;;;;;;;13.15;8.55;;;;;;;2.58;100.00;100071.47;10412970;28;20065;-59
2022/01/23 08:45:19;;;;;;;9.02;7.30;;;;;;;2.60;100.00;100074.06;10408362;28;20389;-55
2022/01/23 08:50:22;;;;;;;9.35;7.40;;;;;;;2.63;100.00;100076.59;10408565;28;20060;-61
2022/01/23 08:55:27;;;;;;;13.10;7.00;;;;;;;2.71;100.00;100079.75;10406961;28;20046;-58
2022/01/23 09:00:30;;;;;;;8.25;6.22;;;;;;;2.75;100.00;100076.03;10407150;28;20136;-57
2022/01/23 09:05:33;;;;;;;8.50;5.80;;;;;;;2.81;100.00;100072.22;10410762;28;20065;-56
2022/01/23 09:10:43;;;;;;;9.27;5.63;;;;;;;2.86;100.00;100080.00;10413705;28;20061;-55
2022/01/23 09:15:46;;;;;;;5.72;4.65;;;;;;;2.92;100.00;100082.34;10408799;28;20484;-57
2022/01/23 09:20:49;;;;;;;6.75;4.90;;;;;;;3.01;100.00;100071.28;10442439;28;20068;-57
2022/01/23 09:25:59;;;;;;;5.65;4.95;;;;;;;3.07;100.00;100080.78;10426100;28;20069;-55
2022/01/23 09:31:03;;;;;;;7.32;5.18;;;;;;;3.17;100.00;100086.53;10412532;28;20057;-59
2022/01/23 09:36:15;;;;;;;6.85;5.25;;;;;;;3.24;100.00;100083.50;10417542;28;20049;-51
2022/01/23 09:41:28;;;;;;;6.00;5.18;;;;;;;3.33;100.00;100081.31;10408300;28;20045;-52
2022/01/23 09:46:33;;;;;;;7.13;5.13;;;;;;;3.37;100.00;100088.25;10421411;28;20045;-50
2022/01/23 09:51:43;;;;;;;4.78;3.95;;;;;;;3.41;100.00;100078.28;10427323;28;20468;-51
2022/01/23 09:56:49;;;;;;;6.47;5.00;;;;;;;3.48;100.00;100085.03;10405397;28;20045;-51
2022/01/23 10:01:56;;;;;;;6.43;4.90;;;;;;;3.53;100.00;100083.03;10408501;28;20045;-50
2022/01/23 10:07:01;;;;;;;5.15;4.30;;;;;;;3.58;100.00;100091.69;10414354;28;20045;-51
2022/01/23 10:12:08;;;;;;;4.45;4.00;;;;;;;3.63;100.00;100084.31;10412356;28;20045;-52
2022/01/23 10:17:12;;;;;;;4.50;3.60;;;;;;;3.74;100.00;100090.91;10411498;28;20030;-50
2022/01/23 10:22:16;;;;;;;7.10;3.53;;;;;;;3.80;100.00;100099.44;10420800;28;20058;-50
2022/01/23 10:27:22;;;;;;;5.07;3.70;;;;;;;3.86;100.00;100092.94;10428872;28;20042;-51
2022/01/23 10:32:26;;;;;;;3.28;2.78;;;;;;;3.89;100.00;100082.13;10406676;28;20041;-59
2022/01/23 10:37:34;;;;;;;3.10;2.53;;;;;;;3.94;100.00;100080.09;10409344;28;20501;-50
2022/01/23 10:46:37;;;;;;;3.83;2.88;;;;;;;4.04;100.00;100082.31;10407922;28;20124;-54
2022/01/23 10:48:40;;;;;;;2.95;2.60;;;;;;;4.08;100.00;100063.41;10424337;28;20064;-54
2022/01/23 10:54:24;;;;;;;2.45;2.25;;;;;;;4.12;100.00;100062.28;10408902;28;20050;-50
2022/01/23 10:59:49;;;;;;;3.45;2.42;;;;;;;4.11;100.00;100054.38;10411606;28;20144;-50
2022/01/23 11:05:01;;;;;;;3.28;2.08;;;;;;;4.05;100.00;100074.22;10412968;28;20037;-51
2022/01/23 11:10:08;;;;;;;3.00;2.22;;;;;;;4.06;100.00;100072.44;10414496;28;20050;-53
2022/01/23 11:20:40;;;;;;;4.28;2.30;;;;;;;3.98;100.00;100087.00;10423111;28;20509;-60
2022/01/23 11:26:26;;;;;;;4.63;2.70;;;;;;;3.95;100.00;100083.63;10428791;28;20068;-50
2022/01/23 11:31:33;;;;;;;4.22;2.72;;;;;;;3.93;100.00;100086.38;10416035;28;20120;-53
2022/01/23 11:36:37;;;;;;;3.47;2.45;;;;;;;4.00;100.00;100077.13;10423032;28;20487;-60
2022/01/23 11:57:50;;;;;;;4.40;1.77;;;;;;;4.08;100.00;100059.84;10411118;28;20128;-52
2022/01/23 12:03:17;;;;;;;3.25;1.40;;;;;;;4.34;100.00;100052.28;10410820;28;20514;-51
2022/01/23 12:08:27;;;;;;;2.60;1.10;;;;;;;4.42;100.00;100040.28;10407954;28;20132;-51
2022/01/23 12:13:56;;;;;;;2.67;1.58;;;;;;;4.57;100.00;100027.91;10416677;28;20565;-48
2022/01/23 12:19:19;;;;;;;3.30;1.30;;;;;;;4.49;100.00;100024.78;10427584;28;20052;-53
2022/01/23 12:24:25;;;;;;;1.80;1.00;;;;;;;4.34;100.00;100026.50;10427297;28;20071;-56
2022/01/23 12:29:29;;;;;;;1.30;0.98;;;;;;;4.34;100.00;100026.50;10412810;28;20083;-54
2022/01/23 12:34:50;;;;;;;1.10;1.00;;;;;;;4.30;100.00;100036.44;10411000;28;20059;-55
2022/01/23 12:40:26;;;;;;;0.95;0.88;;;;;;;4.18;100.00;100030.91;10422023;28;20540;-53
2022/01/23 12:45:44;;;;;;;1.48;1.08;;;;;;;4.19;100.00;100030.81;10406971;28;20143;-55
2022/01/23 12:50:49;;;;;;;2.45;1.38;;;;;;;4.16;100.00;100031.00;10406108;28;20144;-55
2022/01/23 12:56:13;;;;;;;2.50;1.50;;;;;;;4.17;100.00;100040.72;10406378;28;20136;-52
2022/01/23 13:01:20;;;;;;;1.58;1.33;;;;;;;4.19;100.00;100044.16;10422838;28;20037;-55
2022/01/23 13:06:32;;;;;;;1.58;1.10;;;;;;;4.16;100.00;100047.00;10429966;28;20128;-61
2022/01/23 13:11:54;;;;;;;1.58;1.13;;;;;;;4.16;100.00;100028.31;10413604;28;20041;-56
2022/01/23 13:17:26;;;;;;;1.40;1.05;;;;;;;4.10;100.00;100033.97;10412322;28;20116;-60
2022/01/23 13:33:28;;;;;;;3.25;1.40;;;;;;;4.11;100.00;100043.69;10566084;27;20617;-59
2022/01/23 13:38:34;;;;;;;4.10;1.58;;;;;;;4.17;100.00;100046.06;10557753;28;20032;-58
2022/01/23 13:59:54;;;;;;;2.05;1.30;;;;;;;3.98;100.00;100036.31;10509492;28;20392;-56
2022/01/23 14:05:07;;;;;;;2.75;1.00;;;;;;;3.94;100.00;100021.41;10508644;28;20040;-52
2022/01/23 14:10:14;;;;;;;3.08;1.50;;;;;;;3.88;100.00;100024.41;10510748;28;20109;-57
2022/01/23 14:15:20;;;;;;;2.20;1.20;;;;;;;3.90;100.00;100022.53;10507019;28;20052;-58
2022/01/23 14:20:25;;;;;;;2.20;1.20;;;;;;;3.88;100.00;100034.22;10515842;28;20512;-55
2022/01/23 14:25:29;;;;;;;2.20;1.40;;;;;;;3.92;100.00;100030.44;10522428;28;20040;-57
2022/01/23 14:30:34;;;;;;;5.13;1.70;;;;;;;3.95;100.00;100036.47;10522160;28;20055;-55
2022/01/23 14:35:41;;;;;;;4.82;1.80;;;;;;;3.98;100.00;100039.00;10527340;28;20040;-59
2022/01/23 14:41:00;;;;;;;3.42;1.98;;;;;;;3.97;100.00;100028.41;10516248;28;20852;-58
2022/01/23 14:46:06;;;;;;;3.13;1.80;;;;;;;4.00;100.00;100031.78;10494377;28;20044;-58
2022/01/23 14:51:16;;;;;;;4.55;1.80;;;;;;;3.98;100.00;100044.31;10493129;28;20485;-60
2022/01/23 14:56:24;;;;;;;3.78;2.00;;;;;;;4.00;100.00;100037.13;10487405;28;20460;-57
2022/01/23 15:01:29;;;;;;;3.30;2.17;;;;;;;3.96;100.00;100048.88;10480103;28;20040;-56
2022/01/23 15:06:40;;;;;;;5.13;2.60;;;;;;;3.98;100.00;100044.31;10478710;28;20044;-58
2022/01/23 15:11:45;;;;;;;3.28;2.80;;;;;;;3.98;100.00;100052.31;10486374;28;20032;-57
2022/01/23 15:16:52;;;;;;;6.88;3.13;;;;;;;3.97;100.00;100055.94;10475516;28;20052;-56
2022/01/23 15:21:59;;;;;;;4.70;3.38;;;;;;;3.97;100.00;100052.41;10479792;28;20036;-54
2022/01/23 15:27:02;;;;;;;5.30;3.58;;;;;;;3.94;100.00;100064.09;10477169;28;20046;-58
2022/01/23 15:32:05;;;;;;;6.38;3.63;;;;;;;3.92;100.00;100051.78;10471444;28;20063;-62
2022/01/23 15:37:10;;;;;;;4.90;4.30;;;;;;;3.93;100.00;100059.72;10473346;28;20048;-58
2022/01/23 15:42:13;;;;;;;7.75;4.15;;;;;;;3.91;100.00;100066.94;10473805;28;20125;-56
2022/01/23 15:47:16;;;;;;;5.65;3.60;;;;;;;3.88;100.00;100055.56;10472689;28;20045;-59
2022/01/23 15:52:21;;;;;;;3.78;3.10;;;;;;;3.88;100.00;100056.41;10470138;28;20115;-59
2022/01/23 15:57:24;;;;;;;11.25;8.77;;;;;;;3.88;100.00;100071.56;10479425;28;20054;-58
2022/01/23 16:02:27;;;;;;;18.30;15.88;;;;;;;3.85;100.00;100065.44;10485584;28;20037;-60
2022/01/23 16:07:37;;;;;;;16.00;13.90;;;;;;;3.83;100.00;100077.97;10477319;28;20048;-59
2022/01/23 16:12:42;;;;;;;18.95;12.55;;;;;;;3.83;100.00;100085.09;10478615;28;20130;-59
2022/01/23 16:17:47;;;;;;;12.90;11.27;;;;;;;3.81;100.00;100089.66;10478694;28;20087;-55
2022/01/23 16:22:52;;;;;;;13.63;8.40;;;;;;;3.79;100.00;100105.72;10477292;28;20055;-60
2022/01/23 16:27:58;;;;;;;15.52;10.02;;;;;;;3.82;100.00;100099.41;10488186;28;20135;-55
2022/01/23 16:33:02;;;;;;;20.77;13.50;;;;;;;3.78;100.00;100088.00;10498244;28;20049;-58
2022/01/23 16:38:07;;;;;;;17.00;11.63;;;;;;;3.78;100.00;100085.34;10500308;28;20036;-55
2022/01/23 16:43:11;;;;;;;16.38;12.00;;;;;;;3.78;100.00;100098.66;10501895;28;20040;-57
2022/01/23 16:48:14;;;;;;;24.85;14.88;;;;;;;3.76;100.00;100097.03;10503514;28;20481;-55
2022/01/23 16:53:20;;;;;;;254.82;25.38;;;;;;;3.76;100.00;100083.69;10495287;28;20031;-54
2022/01/23 16:58:23;;;;;;;181.18;18.08;;;;;;;3.77;100.00;100101.41;10497187;28;20847;-54
2022/01/23 17:03:28;;;;;;;405.17;21.95;;;;;;;3.76;100.00;100100.56;10494315;28;20574;-54
2022/01/23 17:08:36;;;;;;;388.98;23.48;;;;;;;3.78;100.00;100097.81;10533384;27;20415;-56
2022/01/23 17:13:43;;;;;;;568.85;28.83;;;;;;;3.78;100.00;100101.31;10501102;28;20028;-54
2022/01/23 17:18:47;;;;;;;780.92;34.72;;;;;;;3.76;100.00;100105.91;10506199;28;20093;-58
2022/01/23 17:23:51;;;;;;;992.83;40.35;;;;;;;3.78;100.00;100103.16;10495653;28;20047;-57
2022/01/23 17:28:55;;;;;;;593.00;37.92;;;;;;;3.70;100.00;100093.69;10500311;28;20134;-54
2022/01/23 17:33:58;;;;;;;1034.35;44.30;;;;;;;3.72;100.00;100096.31;10501472;28;20072;-57
2022/01/23 17:39:03;;;;;;;1211.95;47.45;;;;;;;3.72;100.00;100106.09;10499017;28;20036;-57
2022/01/23 17:44:07;;;;;;;850.67;41.35;;;;;;;3.75;100.00;100100.63;10494608;28;20044;-56
2022/01/23 17:49:20;;;;;;;523.78;27.95;;;;;;;3.73;100.00;100110.50;10494705;28;20045;-54
2022/01/23 17:54:25;;;;;;;766.25;36.30;;;;;;;3.74;100.00;100112.22;10493646;28;20036;-56
2022/01/23 17:59:30;;;;;;;193.88;19.75;;;;;;;3.72;100.00;100104.31;10496577;28;20140;-56
2022/01/23 18:04:34;;;;;;;22.73;15.77;;;;;;;3.73;100.00;100103.38;10495463;28;20041;-56
2022/01/23 18:09:39;;;;;;;23.05;14.45;;;;;;;3.73;100.00;100119.38;10494463;28;20052;-57
2022/01/23 18:14:46;;;;;;;26.05;15.45;;;;;;;3.74;100.00;100121.09;10483627;28;20036;-58
2022/01/23 18:19:51;;;;;;;25.80;15.07;;;;;;;3.72;100.00;100125.63;10493188;28;20182;-56
2022/01/23 18:24:57;;;;;;;31.75;17.33;;;;;;;3.75;100.00;100127.28;10493562;28;20515;-63
2022/01/23 18:30:01;;;;;;;41.50;17.73;;;;;;;3.74;100.00;100136.22;10491928;28;20051;-55
2022/01/23 18:35:09;;;;;;;24.00;15.23;;;;;;;3.75;100.00;100132.63;10492886;28;20524;-56
2022/01/23 18:40:38;;;;;;;23.25;14.18;;;;;;;3.75;100.00;100137.94;10489286;28;20135;-54
2022/01/23 18:45:41;;;;;;;29.83;16.20;;;;;;;3.76;100.00;100134.34;10490106;28;20053;-56
2022/01/23 18:50:46;;;;;;;671.35;36.00;;;;;;;3.75;100.00;100128.16;10491973;28;20044;-53
2022/01/23 18:55:52;;;;;;;112.43;19.77;;;;;;;3.73;100.00;100137.16;10493002;28;20552;-57
2022/01/23 19:00:58;;;;;;;923.13;39.13;;;;;;;3.73;100.00;100140.69;10493087;28;20043;-56
2022/01/23 19:06:22;;;;;;;914.50;38.67;;;;;;;3.75;100.00;100141.50;10491348;28;20040;-53
2022/01/23 19:11:29;;;;;;;1123.93;40.78;;;;;;;3.73;100.00;100131.81;10491033;28;20040;-54
2022/01/23 19:16:33;;;;;;;1023.75;39.65;;;;;;;3.73;100.00;100137.16;10493165;28;20098;-56
2022/01/23 19:21:36;;;;;;;1220.05;42.55;;;;;;;3.71;100.00;100139.91;10490838;28;20036;-56
2022/01/23 19:26:40;;;;;;;820.92;37.53;;;;;;;3.74;100.00;100149.53;10489860;28;20538;-58
2022/01/23 19:31:43;;;;;;;527.25;30.23;;;;;;;3.74;100.00;100144.22;10490135;28;20053;-57
2022/01/23 19:36:47;;;;;;;97.97;18.58;;;;;;;3.73;100.00;100147.81;10486623;28;20045;-59
2022/01/23 19:42:06;;;;;;;217.88;21.60;;;;;;;3.75;100.00;100152.16;10482752;28;21155;-59
2022/01/23 19:47:17;;;;;;;329.73;26.67;;;;;;;3.75;100.00;100151.28;10486363;28;20139;-59
2022/01/23 19:52:21;;;;;;;1343.32;43.13;;;;;;;3.74;100.00;100152.22;10486710;28;20039;-56
2022/01/23 19:57:26;;;;;;;1190.68;36.28;;;;;;;3.76;100.00;100153.00;10485634;28;20044;-56
2022/01/23 20:02:30;;;;;;;390.35;26.33;;;;;;;3.87;100.00;100145.34;10487452;28;20033;-58
2022/01/23 20:07:34;;;;;;;901.13;32.47;;;;;;;4.08;100.00;100147.88;10495750;28;20059;-59
2022/01/23 20:12:52;;;;;;;36.25;14.30;;;;;;;4.20;100.00;100141.91;10500324;28;20043;-55
2022/01/23 20:17:58;;;;;;;9.60;8.55;;;;;;;4.30;100.00;100139.66;10502372;28;20048;-60
2022/01/23 20:23:03;;;;;;;9.38;6.28;;;;;;;4.42;100.00;100128.34;10506765;28;20044;-59
2022/01/23 20:28:08;;;;;;;5.20;4.80;;;;;;;4.43;100.00;100131.88;10502104;28;20542;-56
2022/01/23 20:33:11;;;;;;;5.65;5.15;;;;;;;4.43;100.00;100129.19;10509218;28;20051;-59
2022/01/23 20:38:14;;;;;;;12.77;4.90;;;;;;;4.40;100.00;100127.56;10500979;28;20041;-54
2022/01/23 20:43:19;;;;;;;29.15;5.78;;;;;;;4.38;100.00;100128.59;10504631;28;20066;-58
2022/01/23 20:48:22;;;;;;;58.97;6.63;;;;;;;4.36;100.00;100130.47;10502273;28;20148;-59
2022/01/23 20:58:57;;;;;;;6.60;5.95;;;;;;;4.29;100.00;100136.09;10462923;28;20063;-56
2022/01/23 21:04:01;;;;;;;5.93;5.43;;;;;;;4.27;100.00;100127.34;10504375;28;20044;-55
2022/01/23 21:09:05;;;;;;;72.43;8.75;;;;;;;4.21;100.00;100138.31;10497113;28;20047;-54
2022/01/23 21:14:15;;;;;;;7.85;6.63;;;;;;;4.20;100.00;100133.91;10500525;28;20036;-54
2022/01/23 21:19:46;;;;;;;27.92;8.45;;;;;;;4.13;100.00;100136.03;10495207;28;20041;-55
2022/01/23 21:40:50;;;;;;;9.35;7.88;;;;;;;4.14;100.00;100132.41;10494039;28;20522;-52
2022/01/23 21:45:55;;;;;;;8.85;7.63;;;;;;;4.16;100.00;100129.69;10494618;28;20033;-55
2022/01/23 21:50:59;;;;;;;14.82;9.23;;;;;;;4.16;100.00;100129.69;10495208;28;20077;-54
2022/01/23 21:56:02;;;;;;;11.55;9.00;;;;;;;4.15;100.00;100130.63;10510022;28;20040;-57
2022/01/23 22:01:10;;;;;;;131.73;12.60;;;;;;;4.14;100.00;100134.25;10513418;28;20048;-54
2022/01/23 22:06:14;;;;;;;107.75;12.00;;;;;;;4.17;100.00;100134.09;10510921;28;20062;-54
2022/01/23 22:11:20;;;;;;;551.92;25.50;;;;;;;4.15;100.00;100138.63;10516203;28;20052;-54
2022/01/23 22:16:26;;;;;;;290.52;15.60;;;;;;;4.16;100.00;100129.69;10509613;28;20473;-55
2022/01/23 22:21:38;;;;;;;263.50;15.25;;;;;;;4.14;100.00;100134.25;10504300;28;20119;-55
2022/01/23 22:26:46;;;;;;;758.75;26.10;;;;;;;4.11;100.00;100131.72;10490413;28;20054;-56
2022/01/23 22:31:51;;;;;;;524.83;21.90;;;;;;;4.12;100.00;100128.97;10491836;28;20052;-54
2022/01/23 22:36:57;;;;;;;546.92;22.42;;;;;;;4.10;100.00;100132.66;10492334;28;20047;-56
2022/01/23 22:42:01;;;;;;;865.95;26.40;;;;;;;4.07;100.00;100136.34;10491594;28;20037;-56
2022/01/23 22:47:05;;;;;;;637.97;24.02;;;;;;;4.07;100.00;100135.47;10490598;28;20144;-55
2022/01/23 22:52:08;;;;;;;611.10;23.08;;;;;;;4.03;100.00;100129.44;10488773;28;20865;-54
2022/01/23 22:57:11;;;;;;;325.40;18.10;;;;;;;4.06;100.00;100123.94;10488030;28;20041;-57
2022/01/23 23:02:19;;;;;;;262.17;17.77;;;;;;;4.08;100.00;100130.09;10490291;28;20036;-56
2022/01/23 23:07:22;;;;;;;510.48;23.52;;;;;;;4.08;100.00;100126.53;10490234;28;20417;-56
2022/01/23 23:12:30;;;;;;;181.65;15.55;;;;;;;4.08;100.00;100132.75;10488584;28;20079;-58
2022/01/23 23:18:00;;;;;;;325.38;22.02;;;;;;;4.12;100.00;100130.78;10487836;28;20139;-57
2022/01/23 23:23:03;;;;;;;26.00;11.93;;;;;;;4.11;100.00;100129.06;10488715;28;20050;-57
2022/01/23 23:28:07;;;;;;;116.55;13.20;;;;;;;4.13;100.00;100132.50;10488115;28;20043;-57
2022/01/23 23:33:11;;;;;;;420.13;17.92;;;;;;;4.14;100.00;100137.75;10489469;28;20214;-54
2022/01/23 23:38:15;;;;;;;63.67;10.95;;;;;;;4.15;100.00;100133.31;10487137;28;20052;-56
2022/01/23 23:43:24;;;;;;;226.13;14.73;;;;;;;4.15;100.00;100134.16;10490307;28;20060;-55
2022/01/23 23:49:25;;;;;;;278.98;15.13;;;;;;;4.17;100.00;100136.75;10488476;28;20049;-60
2022/01/23 23:54:30;;;;;;;826.83;26.38;;;;;;;4.16;100.00;100137.69;10488065;28;20551;-57
2022/01/23 23:59:34;;;;;;;444.63;17.08;;;;;;;4.19;100.00;100142.84;10519106;28;20048;-55
